Time;durP1;ratioP1;P1;durP2;ratioP2;P2;SDS_P1;SDS_P2;PMS_P1;PMS_P2;Temp;Humidity;BMP_temperature;BMP_pressure;BME280_temperature;BME280_humidity;BME280_pressure;Samples;Min_cycle;Max_cycle;Signal;HPM_P1;HPM_P2
2021/03/10 00:00:08;;;;;;;21.57;16.97;;;6.90;73.20;;;;;;4981496;28;20186;-90
2021/03/10 00:02:33;;;;;;;21.67;18.00;;;6.90;73.20;;;;;;4988008;28;20279;-88
2021/03/10 00:04:59;;;;;;;22.13;18.43;;;6.70;73.50;;;;;;4986009;28;20638;-90
2021/03/10 00:07:25;;;;;;;22.57;17.97;;;6.70;74.50;;;;;;4986504;28;20197;-90
2021/03/10 00:09:52;;;;;;;20.83;17.57;;;6.70;74.00;;;;;;4985932;28;20298;-91
2021/03/10 00:12:18;;;;;;;21.83;18.57;;;6.70;74.00;;;;;;4976944;28;20206;-89
2021/03/10 00:14:44;;;;;;;21.67;17.27;;;6.80;73.70;;;;;;4966930;28;20196;-89
2021/03/10 00:17:09;;;;;;;23.07;18.37;;;6.80;73.00;;;;;;4982911;28;20206;-91
2021/03/10 00:19:36;;;;;;;19.53;17.43;;;6.80;72.90;;;;;;4987645;28;20187;-88
2021/03/10 00:22:02;;;;;;;23.97;18.80;;;6.80;72.90;;;;;;4987576;28;20252;-89
2021/03/10 00:24:27;;;;;;;20.47;17.97;;;6.70;73.40;;;;;;4987113;28;20238;-89
2021/03/10 00:26:53;;;;;;;20.20;17.03;;;6.80;73.20;;;;;;4987328;28;20194;-88
2021/03/10 00:29:19;;;;;;;20.27;17.87;;;6.80;73.20;;;;;;4986110;28;20183;-89
2021/03/10 00:31:44;;;;;;;23.10;18.37;;;6.80;73.50;;;;;;4998432;28;20300;-89
2021/03/10 00:34:10;;;;;;;22.03;17.90;;;6.90;72.80;;;;;;5022293;28;20197;-89
2021/03/10 00:36:36;;;;;;;18.30;16.40;;;6.90;72.40;;;;;;5006026;28;20213;-89
2021/03/10 00:39:03;;;;;;;19.07;16.80;;;7.00;72.40;;;;;;5006617;28;20179;-89
2021/03/10 00:41:29;;;;;;;18.57;15.87;;;6.90;73.00;;;;;;5005963;28;20209;-89
2021/03/10 00:43:55;;;;;;;22.83;16.57;;;6.90;73.10;;;;;;5021740;28;20206;-90
2021/03/10 00:46:21;;;;;;;22.00;18.23;;;6.80;73.40;;;;;;5006726;28;20174;-89
2021/03/10 00:48:46;;;;;;;22.47;17.87;;;6.80;73.90;;;;;;4989223;28;20202;-89
2021/03/10 00:51:12;;;;;;;20.13;17.30;;;6.80;74.70;;;;;;4986722;28;20203;-89
2021/03/10 00:53:38;;;;;;;20.53;18.27;;;6.80;73.70;;;;;;4986565;28;20195;-90
2021/03/10 00:56:04;;;;;;;20.77;18.47;;;7.00;73.10;;;;;;4985947;28;20222;-90
2021/03/10 00:58:29;;;;;;;21.60;18.83;;;7.00;72.80;;;;;;4981148;28;20199;-90
2021/03/10 01:00:55;;;;;;;22.07;17.73;;;7.00;73.50;;;;;;4966421;29;20242;-89
2021/03/10 01:03:21;;;;;;;23.87;18.03;;;7.00;73.10;;;;;;4966412;29;20207;-90
2021/03/10 01:05:47;;;;;;;22.17;18.07;;;7.00;73.40;;;;;;4966488;29;20192;-89
2021/03/10 01:08:13;;;;;;;26.80;18.53;;;7.00;73.70;;;;;;4967113;28;20258;-90
2021/03/10 01:10:40;;;;;;;22.23;18.03;;;6.90;74.20;;;;;;4966393;28;20211;-90
2021/03/10 01:13:06;;;;;;;24.30;19.63;;;6.80;74.70;;;;;;4967480;28;20203;-90
2021/03/10 01:15:32;;;;;;;22.23;18.17;;;6.80;74.90;;;;;;4967326;28;20263;-90
2021/03/10 01:17:57;;;;;;;23.63;18.63;;;6.80;75.30;;;;;;4967179;29;20218;-89
2021/03/10 01:20:24;;;;;;;21.67;18.30;;;6.70;75.80;;;;;;4985242;28;20215;-89
2021/03/10 01:22:49;;;;;;;21.27;17.10;;;6.60;76.10;;;;;;4984993;28;20190;-90
2021/03/10 01:25:16;;;;;;;20.70;17.57;;;6.60;75.90;;;;;;4986792;28;20243;-89
2021/03/10 01:27:42;;;;;;;21.53;18.57;;;6.60;75.90;;;;;;5001458;28;20187;-89
2021/03/10 01:30:11;;;;;;;22.83;19.37;;;6.70;75.60;;;;;;4973044;28;20195;-89
2021/03/10 01:32:37;;;;;;;24.00;19.07;;;6.70;75.70;;;;;;4965734;29;20195;-90
2021/03/10 01:35:04;;;;;;;21.23;18.70;;;6.70;75.90;;;;;;4981530;28;20188;-90
2021/03/10 01:37:31;;;;;;;24.20;18.77;;;6.70;75.30;;;;;;4980397;28;20202;-89
2021/03/10 01:39:57;;;;;;;23.10;20.47;;;6.70;75.40;;;;;;4986204;28;20182;-89
2021/03/10 01:42:23;;;;;;;24.57;18.77;;;6.70;75.70;;;;;;4986083;28;20190;-89
2021/03/10 01:44:49;;;;;;;25.00;20.10;;;6.60;76.30;;;;;;4986109;28;20182;-89
2021/03/10 01:47:15;;;;;;;27.73;20.23;;;6.50;76.20;;;;;;4984755;28;20187;-89
2021/03/10 01:49:41;;;;;;;22.97;18.87;;;6.50;76.70;;;;;;4985216;28;20561;-88
2021/03/10 01:52:08;;;;;;;21.73;19.37;;;6.50;76.60;;;;;;4985436;28;20199;-91
2021/03/10 01:54:34;;;;;;;23.97;20.57;;;6.60;75.50;;;;;;4984799;28;20195;-88
2021/03/10 01:57:02;;;;;;;25.83;20.50;;;6.60;76.10;;;;;;4985108;28;20211;-89
2021/03/10 01:59:27;;;;;;;22.23;19.47;;;6.60;76.00;;;;;;4985210;28;20722;-90
2021/03/10 02:01:53;;;;;;;23.63;20.97;;;6.50;76.50;;;;;;4984367;28;20226;-89
2021/03/10 02:04:19;;;;;;;22.23;19.63;;;6.60;75.90;;;;;;4978783;28;20184;-90
2021/03/10 02:07:04;;;;;;;27.30;21.93;;;6.70;75.10;;;;;;4967162;28;20234;-89
2021/03/10 02:10:01;;;;;;;27.07;20.77;;;6.60;75.70;;;;;;4966607;28;20183;-89
2021/03/10 02:12:32;;;;;;;27.33;20.77;;;6.70;75.40;;;;;;4975245;28;20631;-89
2021/03/10 02:15:18;;;;;;;22.60;19.33;;;6.60;75.70;;;;;;4985836;28;20190;-90
2021/03/10 02:17:51;;;;;;;24.33;20.60;;;6.50;75.80;;;;;;4986327;28;20706;-90
2021/03/10 02:20:26;;;;;;;21.17;18.83;;;6.60;75.40;;;;;;4985631;28;20267;-89
2021/03/10 02:23:32;;;;;;;22.60;19.90;;;6.70;74.80;;;;;;4985625;28;20702;-90
2021/03/10 02:26:35;;;;;;;24.63;20.83;;;6.70;74.70;;;;;;4985859;28;20281;-90
2021/03/10 02:29:11;;;;;;;21.83;18.50;;;6.60;75.20;;;;;;4985924;28;20183;-89
2021/03/10 02:31:44;;;;;;;24.93;21.20;;;6.70;75.00;;;;;;4985916;28;20214;-89
2021/03/10 02:34:10;;;;;;;22.80;20.37;;;6.70;74.90;;;;;;4989259;28;20164;-89
2021/03/10 02:36:36;;;;;;;25.33;21.60;;;6.60;75.60;;;;;;4989376;28;20202;-90
2021/03/10 02:39:03;;;;;;;26.47;20.83;;;6.50;76.10;;;;;;4987443;28;20183;-90
2021/03/10 02:41:31;;;;;;;24.83;19.93;;;6.60;75.80;;;;;;4989344;28;20205;-90
2021/03/10 02:43:57;;;;;;;22.60;19.77;;;6.60;76.00;;;;;;4987947;28;20187;-90
2021/03/10 02:46:25;;;;;;;21.10;18.67;;;6.70;75.70;;;;;;4989016;28;20646;-90
2021/03/10 02:48:51;;;;;;;22.13;17.60;;;6.70;75.50;;;;;;4987158;28;20202;-90
2021/03/10 02:51:19;;;;;;;23.17;20.17;;;6.70;75.70;;;;;;4988509;28;20215;-90
2021/03/10 02:53:46;;;;;;;23.00;18.40;;;6.70;75.70;;;;;;4975261;28;20202;-90
2021/03/10 02:56:12;;;;;;;21.10;18.33;;;6.80;75.10;;;;;;4987867;28;20215;-90
2021/03/10 02:58:39;;;;;;;22.17;17.70;;;6.80;74.70;;;;;;4983696;28;20184;-90
2021/03/10 03:01:06;;;;;;;21.73;18.53;;;6.90;74.30;;;;;;4991234;28;20202;-90
2021/03/10 03:03:32;;;;;;;21.73;18.60;;;6.90;74.30;;;;;;5008528;28;20301;-90
2021/03/10 03:05:57;;;;;;;22.80;18.73;;;7.00;74.10;;;;;;5008178;28;20195;-90
2021/03/10 03:08:24;;;;;;;24.47;18.07;;;6.90;74.00;;;;;;5008773;28;20182;-90
2021/03/10 03:10:50;;;;;;;21.87;18.13;;;6.80;74.60;;;;;;5008024;28;20237;-89
2021/03/10 03:13:17;;;;;;;23.13;18.97;;;6.80;74.70;;;;;;5008156;28;20179;-90
2021/03/10 03:15:45;;;;;;;21.43;19.00;;;6.80;74.50;;;;;;5023566;28;20186;-89
2021/03/10 03:18:12;;;;;;;21.40;18.73;;;6.80;74.40;;;;;;5007620;28;20195;-89
2021/03/10 03:20:37;;;;;;;23.00;18.60;;;6.90;74.60;;;;;;5008159;28;20681;-89
2021/03/10 03:23:05;;;;;;;21.43;19.13;;;6.80;75.10;;;;;;5006374;28;20250;-89
2021/03/10 03:25:39;;;;;;;23.07;19.43;;;6.70;75.50;;;;;;5023091;28;20186;-90
2021/03/10 03:28:06;;;;;;;22.23;18.77;;;6.70;76.00;;;;;;5001315;28;20187;-90
2021/03/10 03:30:35;;;;;;;22.50;19.07;;;6.70;75.70;;;;;;4971019;28;20216;-89
2021/03/10 03:33:05;;;;;;;24.93;21.20;;;6.60;75.80;;;;;;4968183;28;20195;-89
2021/03/10 03:35:31;;;;;;;24.73;19.80;;;6.50;76.50;;;;;;4969422;28;20168;-89
2021/03/10 03:37:59;;;;;;;27.17;20.90;;;6.40;77.60;;;;;;4968661;29;20219;-89
2021/03/10 03:40:25;;;;;;;24.57;21.97;;;6.30;78.10;;;;;;4968082;29;20238;-89
2021/03/10 03:42:51;;;;;;;25.97;22.67;;;6.40;78.20;;;;;;4969736;28;20203;-89
2021/03/10 03:45:19;;;;;;;28.87;23.20;;;6.40;77.30;;;;;;4976089;28;20195;-90
2021/03/10 03:47:52;;;;;;;27.53;22.33;;;6.30;78.50;;;;;;4988202;28;20250;-89
2021/03/10 03:50:19;;;;;;;30.33;24.07;;;6.00;79.90;;;;;;4985306;28;20207;-89
2021/03/10 03:52:45;;;;;;;29.37;24.07;;;6.10;80.20;;;;;;4967490;28;20192;-89
2021/03/10 03:55:12;;;;;;;29.47;23.57;;;6.10;80.00;;;;;;4967598;29;20196;-90
2021/03/10 03:57:39;;;;;;;30.87;24.13;;;5.90;80.40;;;;;;4967686;29;20211;-89
2021/03/10 04:00:07;;;;;;;28.90;24.33;;;6.00;80.20;;;;;;4966882;29;20251;-89
2021/03/10 04:02:33;;;;;;;28.77;24.00;;;6.10;79.70;;;;;;4968680;28;20250;-89
2021/03/10 04:04:59;;;;;;;28.07;22.60;;;6.10;79.50;;;;;;4968111;29;20191;-89
2021/03/10 04:07:25;;;;;;;28.80;23.67;;;6.10;79.50;;;;;;4968093;28;20184;-89
2021/03/10 04:09:51;;;;;;;29.03;23.47;;;6.10;79.20;;;;;;4967363;29;20251;-90
2021/03/10 04:12:16;;;;;;;27.27;23.57;;;6.10;79.90;;;;;;4983369;28;20306;-89
2021/03/10 04:14:42;;;;;;;31.03;23.97;;;6.20;79.60;;;;;;4967160;28;20196;-90
2021/03/10 04:17:08;;;;;;;28.80;23.33;;;6.20;79.20;;;;;;4966983;29;20214;-89
2021/03/10 04:19:33;;;;;;;29.53;23.53;;;6.20;79.60;;;;;;4967924;29;20208;-90
2021/03/10 04:21:59;;;;;;;28.60;24.20;;;6.20;79.50;;;;;;4967816;29;20235;-90
2021/03/10 04:24:25;;;;;;;28.40;23.97;;;6.00;80.40;;;;;;4967895;28;20182;-89
2021/03/10 04:26:51;;;;;;;31.87;24.57;;;6.00;80.40;;;;;;4967019;29;20588;-89
2021/03/10 04:29:16;;;;;;;33.47;25.33;;;6.00;80.90;;;;;;4967585;28;20208;-90
2021/03/10 04:31:42;;;;;;;29.80;24.50;;;6.00;80.60;;;;;;4987430;28;20214;-89
2021/03/10 04:34:09;;;;;;;32.00;24.37;;;6.00;80.80;;;;;;4987675;28;20187;-90
2021/03/10 04:36:34;;;;;;;30.20;25.77;;;5.90;81.50;;;;;;4986793;28;20211;-90
2021/03/10 04:39:00;;;;;;;32.63;25.30;;;6.00;80.70;;;;;;4972862;28;20218;-90
2021/03/10 04:41:26;;;;;;;32.10;26.17;;;5.90;81.30;;;;;;4950313;29;20283;-90
2021/03/10 04:43:51;;;;;;;30.70;23.67;;;5.90;81.10;;;;;;4966955;29;20184;-90
2021/03/10 04:46:18;;;;;;;33.10;25.50;;;5.90;81.30;;;;;;4982635;28;20290;-90
2021/03/10 04:48:44;;;;;;;29.90;23.80;;;6.00;80.80;;;;;;4987143;28;20179;-89
2021/03/10 04:51:09;;;;;;;29.27;24.43;;;6.10;80.50;;;;;;4986893;28;20195;-90
2021/03/10 04:53:35;;;;;;;31.87;24.67;;;6.00;80.60;;;;;;4970422;28;20655;-90
2021/03/10 04:56:01;;;;;;;29.40;23.30;;;5.90;81.50;;;;;;4978486;28;20647;-90
2021/03/10 04:58:27;;;;;;;29.60;24.00;;;5.90;81.70;;;;;;4966339;28;20191;-90
2021/03/10 05:00:52;;;;;;;31.33;23.33;;;5.90;81.60;;;;;;4966348;29;20212;-90
2021/03/10 05:03:18;;;;;;;30.40;23.53;;;5.80;81.80;;;;;;4966349;28;20223;-91
2021/03/10 05:05:44;;;;;;;31.73;24.17;;;5.80;81.70;;;;;;4967806;28;20194;-89
2021/03/10 05:08:11;;;;;;;29.90;24.47;;;5.70;82.70;;;;;;4967454;29;20190;-90
2021/03/10 05:10:37;;;;;;;30.80;24.17;;;5.80;82.20;;;;;;4966754;29;20215;-90
2021/03/10 05:13:03;;;;;;;31.17;25.87;;;5.90;82.20;;;;;;4967808;28;20176;-89
2021/03/10 05:15:28;;;;;;;34.73;25.70;;;5.80;82.40;;;;;;4965917;29;20219;-89
2021/03/10 05:17:54;;;;;;;30.63;25.57;;;5.70;82.70;;;;;;4967167;28;20216;-89
2021/03/10 05:20:20;;;;;;;34.50;27.07;;;5.70;83.30;;;;;;4967613;29;20207;-89
2021/03/10 05:22:46;;;;;;;37.20;27.37;;;5.60;83.60;;;;;;4966173;29;20190;-90
2021/03/10 05:25:12;;;;;;;32.70;26.00;;;5.70;83.70;;;;;;4967624;29;20190;-90
2021/03/10 05:27:38;;;;;;;35.30;27.63;;;5.70;82.80;;;;;;4950506;29;20663;-90
2021/03/10 05:30:07;;;;;;;37.80;26.93;;;5.70;83.40;;;;;;4966500;28;20202;-90
2021/03/10 05:32:33;;;;;;;33.13;27.27;;;5.80;82.00;;;;;;4989396;28;20212;-90
2021/03/10 05:34:58;;;;;;;40.87;29.83;;;5.80;81.90;;;;;;4985706;28;20191;-89
2021/03/10 05:37:24;;;;;;;36.33;27.37;;;5.80;82.50;;;;;;4985549;28;20215;-90
2021/03/10 05:39:50;;;;;;;33.40;26.60;;;5.80;82.10;;;;;;4985066;28;20183;-88
2021/03/10 05:42:17;;;;;;;37.00;29.27;;;5.80;81.40;;;;;;4985452;28;20193;-91
2021/03/10 05:44:43;;;;;;;35.63;26.93;;;5.70;82.20;;;;;;4986514;28;20210;-89
2021/03/10 05:47:09;;;;;;;32.20;26.10;;;5.90;81.80;;;;;;4986544;28;20195;-89
2021/03/10 05:49:35;;;;;;;34.13;26.73;;;5.90;81.30;;;;;;4984118;28;20191;-90
2021/03/10 05:52:04;;;;;;;31.47;26.37;;;5.90;81.60;;;;;;4984571;28;20218;-90
2021/03/10 05:54:31;;;;;;;32.27;25.37;;;5.90;81.40;;;;;;4984862;28;20195;-90
2021/03/10 05:57:00;;;;;;;36.40;27.30;;;5.90;81.30;;;;;;5002257;28;20210;-90
2021/03/10 05:59:29;;;;;;;36.20;27.57;;;6.00;81.30;;;;;;4986413;28;20214;-89
2021/03/10 06:01:55;;;;;;;35.87;25.50;;;5.90;81.20;;;;;;4983729;28;20282;-90
2021/03/10 06:04:21;;;;;;;33.50;24.90;;;5.90;81.70;;;;;;4984413;28;20179;-90
2021/03/10 06:06:47;;;;;;;33.90;27.07;;;5.70;82.40;;;;;;4985024;28;20187;-90
2021/03/10 06:09:20;;;;;;;31.70;24.53;;;5.70;82.70;;;;;;4990263;28;20195;-89
2021/03/10 06:12:03;;;;;;;34.60;25.70;;;5.80;82.30;;;;;;4989608;28;20230;-90
2021/03/10 06:14:30;;;;;;;31.90;25.30;;;5.80;81.90;;;;;;4989369;28;20731;-89
2021/03/10 06:17:04;;;;;;;30.87;24.53;;;5.80;82.30;;;;;;4989326;28;20203;-89
2021/03/10 06:19:30;;;;;;;29.03;24.50;;;5.80;82.40;;;;;;4991122;28;20183;-91
2021/03/10 06:21:55;;;;;;;33.13;26.93;;;5.90;81.80;;;;;;4987648;28;20203;-89
2021/03/10 06:24:34;;;;;;;29.97;24.93;;;5.90;81.80;;;;;;4988292;28;20210;-90
2021/03/10 06:27:00;;;;;;;28.53;23.13;;;6.00;81.40;;;;;;4988712;28;20183;-89
2021/03/10 06:29:26;;;;;;;31.57;24.97;;;5.70;82.00;;;;;;4989750;28;20214;-88
2021/03/10 06:32:09;;;;;;;31.37;24.80;;;5.60;84.00;;;;;;4989843;28;20210;-89
2021/03/10 06:34:49;;;;;;;32.00;25.13;;;5.60;83.30;;;;;;4989067;28;20178;-88
2021/03/10 06:37:29;;;;;;;32.53;24.47;;;5.80;82.90;;;;;;4988802;28;20211;-88
2021/03/10 06:40:12;;;;;;;28.97;24.90;;;5.60;82.80;;;;;;4988272;28;20171;-89
2021/03/10 06:42:39;;;;;;;30.33;24.97;;;5.60;83.60;;;;;;4989535;28;20172;-90
2021/03/10 06:45:06;;;;;;;29.73;23.40;;;5.50;84.20;;;;;;4986729;28;20179;-89
2021/03/10 06:47:40;;;;;;;28.33;22.77;;;5.50;84.10;;;;;;4989074;28;20275;-89
2021/03/10 06:50:08;;;;;;;29.30;23.17;;;5.60;83.30;;;;;;4999960;28;20210;-89
2021/03/10 06:52:34;;;;;;;26.70;22.50;;;5.60;84.10;;;;;;5006179;28;20202;-88
2021/03/10 06:55:01;;;;;;;28.07;21.73;;;5.80;82.60;;;;;;5007558;28;20333;-89
2021/03/10 06:57:28;;;;;;;28.53;22.50;;;5.80;82.60;;;;;;5025851;28;20213;-89
2021/03/10 06:59:55;;;;;;;25.53;22.47;;;5.80;82.70;;;;;;5008612;28;20213;-89
2021/03/10 07:02:29;;;;;;;28.97;22.70;;;5.70;83.40;;;;;;5022473;28;20204;-89
2021/03/10 07:04:59;;;;;;;30.70;23.67;;;5.80;82.60;;;;;;5009220;28;20194;-89
2021/03/10 07:07:29;;;;;;;28.83;22.70;;;5.90;82.10;;;;;;5006641;28;20637;-88
2021/03/10 07:09:56;;;;;;;31.50;23.70;;;5.90;82.10;;;;;;5007174;28;20167;-88
2021/03/10 07:12:24;;;;;;;30.90;24.50;;;5.90;82.00;;;;;;5009166;28;20189;-88
2021/03/10 07:14:50;;;;;;;33.53;23.83;;;6.00;81.30;;;;;;5009673;28;20187;-89
2021/03/10 07:17:19;;;;;;;30.37;23.17;;;5.90;81.60;;;;;;5005923;28;20228;-88
2021/03/10 07:19:45;;;;;;;31.33;24.17;;;5.90;81.70;;;;;;5007917;28;20189;-88
2021/03/10 07:22:23;;;;;;;27.97;22.10;;;5.80;82.10;;;;;;5007067;28;20225;-88
2021/03/10 07:25:03;;;;;;;33.47;23.87;;;5.80;82.60;;;;;;5007377;28;20187;-88
2021/03/10 07:27:51;;;;;;;27.43;22.57;;;6.00;81.90;;;;;;5006815;28;20309;-88
2021/03/10 07:30:17;;;;;;;31.20;23.37;;;5.90;82.10;;;;;;4991350;28;20218;-89
2021/03/10 07:32:43;;;;;;;29.23;23.87;;;5.70;83.40;;;;;;4988309;28;20191;-89
2021/03/10 07:35:10;;;;;;;29.77;23.63;;;5.80;83.20;;;;;;4987870;28;20278;-89
2021/03/10 07:37:51;;;;;;;33.23;23.63;;;5.90;82.30;;;;;;5003233;28;20221;-89
2021/03/10 07:40:17;;;;;;;30.40;23.77;;;5.90;82.70;;;;;;4988016;28;20209;-89
2021/03/10 07:42:57;;;;;;;29.73;25.43;;;5.90;83.40;;;;;;4989135;28;20191;-88
2021/03/10 07:45:26;;;;;;;33.80;24.73;;;5.90;83.20;;;;;;5002713;28;20275;-89
2021/03/10 07:47:58;;;;;;;34.70;25.77;;;5.90;83.20;;;;;;5003886;28;20215;-88
2021/03/10 07:50:39;;;;;;;30.30;24.43;;;5.80;83.40;;;;;;4985908;28;20626;-88
2021/03/10 07:53:06;;;;;;;36.33;28.00;;;5.90;83.00;;;;;;4987905;28;20185;-88
2021/03/10 07:55:45;;;;;;;33.70;26.50;;;5.90;82.50;;;;;;4987687;28;20701;-88
2021/03/10 07:58:11;;;;;;;34.20;27.07;;;6.00;82.10;;;;;;4987885;28;20206;-89
2021/03/10 08:00:38;;;;;;;33.27;27.33;;;6.00;81.90;;;;;;5003216;28;20226;-91
2021/03/10 08:03:04;;;;;;;37.57;28.23;;;6.10;82.00;;;;;;4985019;28;20286;-89
2021/03/10 08:05:30;;;;;;;43.47;28.97;;;6.20;81.50;;;;;;4995101;28;20194;-89
2021/03/10 08:08:32;;;;;;;36.17;27.23;;;6.10;81.10;;;;;;5004475;28;20187;-89
2021/03/10 08:11:13;;;;;;;37.37;28.03;;;6.30;80.70;;;;;;5001475;28;20751;-89
2021/03/10 08:13:39;;;;;;;37.80;27.33;;;6.50;80.30;;;;;;4995742;28;20247;-88
2021/03/10 08:16:10;;;;;;;41.40;28.57;;;6.50;80.20;;;;;;4984923;28;20825;-89
2021/03/10 08:18:39;;;;;;;37.10;28.30;;;6.40;80.70;;;;;;4986842;28;20187;-89
2021/03/10 08:21:13;;;;;;;36.77;28.70;;;6.50;80.60;;;;;;5002117;28;20206;-88
2021/03/10 08:23:44;;;;;;;35.33;28.20;;;6.60;80.40;;;;;;4981511;28;20191;-88
2021/03/10 08:26:11;;;;;;;37.33;27.80;;;6.70;78.90;;;;;;4974062;28;20183;-88
2021/03/10 08:28:39;;;;;;;36.77;28.30;;;6.70;79.50;;;;;;4983063;28;20191;-90
2021/03/10 08:31:08;;;;;;;32.03;27.17;;;6.70;80.00;;;;;;4984012;28;20211;-89
2021/03/10 08:33:48;;;;;;;35.07;28.50;;;6.80;79.00;;;;;;4985783;28;20690;-90
2021/03/10 08:36:15;;;;;;;35.83;26.97;;;6.80;80.00;;;;;;4987945;28;20859;-88
2021/03/10 08:38:41;;;;;;;33.63;25.03;;;6.80;78.80;;;;;;4986392;28;20183;-89
2021/03/10 08:41:08;;;;;;;37.23;27.93;;;6.80;79.80;;;;;;4986311;28;20233;-89
2021/03/10 08:43:35;;;;;;;34.00;26.93;;;7.00;78.40;;;;;;4986025;28;20197;-89
2021/03/10 08:46:02;;;;;;;34.60;27.07;;;7.10;78.40;;;;;;4983762;28;20230;-90
2021/03/10 08:48:35;;;;;;;35.77;26.63;;;7.00;78.60;;;;;;4985183;28;20266;-88
2021/03/10 08:51:03;;;;;;;33.27;27.30;;;7.00;78.10;;;;;;4985639;28;20207;-89
2021/03/10 08:53:29;;;;;;;37.07;28.90;;;7.00;79.00;;;;;;5001417;28;20237;-90
2021/03/10 08:56:05;;;;;;;36.93;28.90;;;7.20;78.00;;;;;;5001405;28;20638;-89
2021/03/10 08:58:30;;;;;;;39.83;29.20;;;7.40;77.50;;;;;;4985601;28;20167;-89
2021/03/10 09:00:59;;;;;;;37.57;29.50;;;7.50;77.60;;;;;;4987201;28;20707;-89
2021/03/10 09:03:25;;;;;;;37.70;29.80;;;7.30;78.10;;;;;;4987215;28;20201;-89
2021/03/10 09:05:51;;;;;;;38.77;29.90;;;7.30;78.00;;;;;;4985647;28;20183;-88
2021/03/10 09:08:23;;;;;;;39.70;30.63;;;7.60;77.80;;;;;;4987777;28;20182;-89
2021/03/10 09:10:53;;;;;;;39.67;30.40;;;7.50;76.50;;;;;;4980665;28;20893;-88
2021/03/10 09:13:26;;;;;;;38.33;31.10;;;7.80;76.10;;;;;;4967572;28;20755;-89
2021/03/10 09:15:52;;;;;;;37.17;30.00;;;7.80;74.60;;;;;;4972200;28;20197;-89
2021/03/10 09:18:17;;;;;;;38.50;30.93;;;7.80;75.90;;;;;;4974945;28;20274;-88
2021/03/10 09:20:45;;;;;;;38.73;30.27;;;7.80;75.10;;;;;;4985799;28;20195;-89
2021/03/10 09:23:12;;;;;;;39.27;31.87;;;7.80;74.80;;;;;;4983098;28;20322;-87
2021/03/10 09:25:41;;;;;;;38.07;29.37;;;7.60;76.00;;;;;;4985877;28;20233;-87
2021/03/10 09:28:12;;;;;;;35.37;29.07;;;7.90;74.90;;;;;;4986669;28;20182;-89
2021/03/10 09:30:46;;;;;;;39.13;29.70;;;8.20;73.60;;;;;;4987079;28;20211;-88
2021/03/10 09:33:26;;;;;;;40.07;30.10;;;8.30;72.80;;;;;;4984623;28;20298;-88
2021/03/10 09:35:58;;;;;;;40.57;29.87;;;8.20;74.90;;;;;;5001157;28;20183;-90
2021/03/10 09:38:25;;;;;;;38.57;30.63;;;8.20;74.00;;;;;;4967214;29;20190;-88
2021/03/10 09:40:54;;;;;;;37.47;27.50;;;8.10;73.70;;;;;;4977322;28;20203;-89
2021/03/10 09:43:22;;;;;;;36.63;28.73;;;8.20;74.00;;;;;;4985566;28;20175;-88
2021/03/10 09:45:49;;;;;;;35.77;29.93;;;8.00;74.30;;;;;;4988541;28;20246;-89
2021/03/10 09:48:31;;;;;;;40.73;31.10;;;8.10;74.50;;;;;;4991493;28;20293;-89
2021/03/10 09:51:08;;;;;;;33.77;28.30;;;8.30;72.90;;;;;;4988800;28;20570;-89
2021/03/10 09:53:45;;;;;;;35.17;29.00;;;8.50;72.30;;;;;;4991433;28;20202;-88
2021/03/10 09:56:13;;;;;;;35.73;28.93;;;8.80;71.50;;;;;;4989011;28;20210;-89
2021/03/10 09:59:10;;;;;;;35.97;28.10;;;9.00;71.00;;;;;;4989421;28;20178;-88
2021/03/10 10:01:45;;;;;;;34.57;28.00;;;9.10;69.80;;;;;;4988261;28;20246;-89
2021/03/10 10:04:12;;;;;;;36.00;27.67;;;9.30;68.40;;;;;;4990003;28;20158;-88
2021/03/10 10:06:51;;;;;;;33.33;28.87;;;9.20;70.00;;;;;;4990201;28;20190;-89
2021/03/10 10:09:17;;;;;;;36.80;29.53;;;9.10;69.50;;;;;;4989383;28;20685;-90
2021/03/10 10:11:43;;;;;;;34.53;28.90;;;9.30;69.10;;;;;;4990863;28;20279;-87
2021/03/10 10:14:09;;;;;;;32.07;28.13;;;9.10;70.40;;;;;;4991869;28;20183;-88
2021/03/10 10:16:38;;;;;;;34.07;27.77;;;9.00;70.30;;;;;;4989456;28;20206;-89
2021/03/10 10:19:04;;;;;;;38.27;28.97;;;9.00;69.90;;;;;;4987641;28;20534;-89
2021/03/10 10:21:30;;;;;;;32.63;27.97;;;9.00;70.30;;;;;;4992251;28;20215;-88
2021/03/10 10:23:56;;;;;;;39.00;29.37;;;9.30;69.50;;;;;;4988300;28;20294;-88
2021/03/10 10:26:22;;;;;;;33.13;28.43;;;9.40;69.30;;;;;;4990085;28;20183;-88
2021/03/10 10:28:48;;;;;;;33.50;29.30;;;9.60;68.50;;;;;;4990294;28;20277;-88
2021/03/10 10:31:14;;;;;;;35.93;29.90;;;9.20;69.50;;;;;;4989627;28;20211;-88
2021/03/10 10:33:40;;;;;;;32.47;28.30;;;8.80;70.50;;;;;;4990804;28;20194;-89
2021/03/10 10:36:06;;;;;;;32.00;26.13;;;8.70;70.60;;;;;;4973951;28;20208;-89
2021/03/10 10:38:32;;;;;;;33.00;26.40;;;9.10;68.90;;;;;;4989237;28;20179;-88
2021/03/10 10:40:58;;;;;;;33.87;28.50;;;9.30;68.60;;;;;;4991215;28;20271;-88
2021/03/10 10:43:24;;;;;;;33.80;28.07;;;9.40;67.40;;;;;;5008252;28;20270;-88
2021/03/10 10:45:49;;;;;;;36.03;29.43;;;9.30;68.50;;;;;;4991405;28;20206;-89
2021/03/10 10:48:15;;;;;;;31.47;28.00;;;9.20;68.50;;;;;;4990309;28;20195;-89
2021/03/10 10:50:41;;;;;;;31.27;27.77;;;9.50;66.20;;;;;;4981618;28;20216;-88
2021/03/10 10:53:06;;;;;;;31.77;27.33;;;9.50;66.50;;;;;;4971549;28;20184;-89
2021/03/10 10:55:32;;;;;;;30.97;27.50;;;9.70;65.50;;;;;;4969431;29;20184;-87
2021/03/10 10:57:58;;;;;;;32.13;27.17;;;9.60;65.90;;;;;;4969154;29;20210;-88
2021/03/10 11:00:26;;;;;;;34.00;27.87;;;9.60;65.70;;;;;;4968792;29;20204;-89
2021/03/10 11:02:52;;;;;;;30.33;25.63;;;9.80;65.60;;;;;;4971036;28;20322;-88
2021/03/10 11:05:18;;;;;;;31.30;27.87;;;10.00;63.80;;;;;;4970871;28;20219;-87
2021/03/10 11:07:44;;;;;;;29.40;26.10;;;10.00;61.40;;;;;;4969374;29;20211;-89
2021/03/10 11:10:10;;;;;;;31.47;26.17;;;10.00;63.10;;;;;;4969261;28;20192;-89
2021/03/10 11:12:35;;;;;;;27.87;24.80;;;10.10;63.40;;;;;;4972362;29;20191;-90
2021/03/10 11:15:02;;;;;;;28.77;25.03;;;10.20;61.00;;;;;;4969022;28;20188;-89
2021/03/10 11:17:28;;;;;;;28.80;25.83;;;10.40;61.80;;;;;;4987022;28;20219;-88
2021/03/10 11:19:54;;;;;;;30.00;24.30;;;10.60;60.30;;;;;;4989559;28;20198;-90
2021/03/10 11:22:19;;;;;;;29.57;25.33;;;10.70;61.80;;;;;;4985052;28;20191;-89
2021/03/10 11:24:45;;;;;;;28.77;24.50;;;10.70;60.00;;;;;;4985824;28;20852;-89
2021/03/10 11:27:13;;;;;;;29.73;26.83;;;10.60;57.90;;;;;;4971543;28;20196;-89
2021/03/10 11:29:38;;;;;;;28.13;22.17;;;10.70;56.70;;;;;;4968778;28;20183;-90
2021/03/10 11:32:04;;;;;;;25.63;22.43;;;10.70;56.80;;;;;;4970959;28;20231;-87
2021/03/10 11:34:30;;;;;;;27.90;24.53;;;10.70;57.70;;;;;;4968097;29;20184;-88
2021/03/10 11:36:56;;;;;;;28.17;25.17;;;10.50;58.60;;;;;;4971458;29;20203;-86
2021/03/10 11:39:22;;;;;;;29.53;25.83;;;10.80;58.50;;;;;;4968811;28;20180;-89
2021/03/10 11:41:48;;;;;;;34.57;24.00;;;10.80;57.50;;;;;;4985534;28;20230;-89
2021/03/10 11:44:14;;;;;;;28.77;24.17;;;10.80;56.50;;;;;;4980774;28;20179;-88
2021/03/10 11:46:40;;;;;;;29.13;24.33;;;10.70;57.60;;;;;;4988388;28;20255;-88
2021/03/10 11:49:06;;;;;;;25.40;22.60;;;10.70;58.30;;;;;;4987158;28;20191;-89
2021/03/10 11:51:33;;;;;;;26.57;22.23;;;10.90;57.60;;;;;;4988813;28;20226;-87
2021/03/10 11:53:59;;;;;;;25.90;23.10;;;10.90;56.30;;;;;;4991331;28;20201;-86
2021/03/10 11:56:25;;;;;;;24.90;21.80;;;10.80;56.70;;;;;;4988820;28;20761;-89
2021/03/10 11:58:51;;;;;;;25.83;20.20;;;11.00;56.10;;;;;;4986546;28;20210;-89
2021/03/10 12:01:16;;;;;;;28.13;20.63;;;11.30;54.50;;;;;;4986629;28;20225;-89
2021/03/10 12:03:42;;;;;;;23.93;21.43;;;11.00;53.90;;;;;;4989931;28;20195;-91
2021/03/10 12:06:08;;;;;;;25.73;22.93;;;10.90;55.30;;;;;;5006554;28;20226;-90
2021/03/10 12:08:34;;;;;;;19.27;16.77;;;11.10;55.80;;;;;;5008047;28;20242;-92
2021/03/10 12:11:00;;;;;;;21.60;19.27;;;11.40;50.60;;;;;;4989127;28;20254;-89
2021/03/10 12:13:26;;;;;;;22.73;18.93;;;11.60;51.00;;;;;;4990577;28;20269;-89
2021/03/10 12:15:57;;;;;;;18.90;16.97;;;11.70;51.50;;;;;;4991684;28;20179;-89
2021/03/10 12:18:22;;;;;;;18.03;15.97;;;11.80;49.30;;;;;;4988612;28;20214;-89
2021/03/10 12:20:49;;;;;;;18.33;16.33;;;11.60;49.40;;;;;;4988878;28;20206;-88
2021/03/10 12:23:18;;;;;;;16.50;14.80;;;11.80;47.80;;;;;;5005798;28;20175;-92
2021/03/10 12:25:45;;;;;;;16.47;12.97;;;11.60;45.90;;;;;;4990549;28;20186;-89
2021/03/10 12:28:10;;;;;;;14.97;13.20;;;11.80;45.10;;;;;;5006107;28;20183;-91
2021/03/10 12:30:37;;;;;;;13.47;11.90;;;11.70;46.00;;;;;;4989519;28;20222;-90
2021/03/10 12:33:03;;;;;;;11.47;10.30;;;12.00;43.30;;;;;;4988574;28;20194;-91
2021/03/10 12:35:29;;;;;;;8.67;7.87;;;12.40;42.90;;;;;;5006384;28;20246;-90
2021/03/10 12:37:55;;;;;;;7.47;6.77;;;12.30;39.80;;;;;;4990573;28;20227;-89
2021/03/10 12:40:23;;;;;;;11.17;10.07;;;12.20;39.90;;;;;;4989947;28;20202;-90